createdAt,value
2023-04-26T00:01:18.570Z,30.98
2023-04-26T00:03:46.712Z,32.85
2023-04-26T00:06:16.493Z,48.20
2023-04-26T00:08:44.394Z,47.10
2023-04-26T00:11:12.397Z,30.88
2023-04-26T00:13:40.863Z,31.15
2023-04-26T00:16:08.969Z,26.65
2023-04-26T00:18:37.363Z,35.97
2023-04-26T00:21:05.709Z,28.63
2023-04-26T00:23:36.589Z,26.42
2023-04-26T00:26:04.937Z,35.28
2023-04-26T00:28:32.865Z,30.95
2023-04-26T00:31:00.745Z,27.63
2023-04-26T00:33:28.834Z,27.45
2023-04-26T00:35:56.797Z,31.15
2023-04-26T00:38:24.790Z,30.75
2023-04-26T00:40:53.950Z,33.05
2023-04-26T00:43:21.744Z,45.22
2023-04-26T00:45:50.458Z,38.92
2023-04-26T00:48:19.282Z,37.17
2023-04-26T00:50:48.475Z,37.58
2023-04-26T00:53:17.788Z,44.15
2023-04-26T00:55:46.728Z,33.70
2023-04-26T00:58:15.982Z,40.80
2023-04-26T01:00:43.910Z,34.83
2023-04-26T01:03:12.569Z,53.00
2023-04-26T01:05:40.525Z,36.85
2023-04-26T01:08:09.111Z,50.85
2023-04-26T01:10:37.286Z,48.33
2023-04-26T01:13:05.536Z,61.22
2023-04-26T01:15:36.609Z,60.78
2023-04-26T01:18:06.466Z,34.92
2023-04-26T01:20:34.926Z,72.72
2023-04-26T01:23:07.654Z,79.40
2023-04-26T01:25:37.977Z,63.97
2023-04-26T01:28:05.957Z,48.30
2023-04-26T01:30:33.968Z,79.70
2023-04-26T01:33:02.515Z,51.03
2023-04-26T01:35:30.509Z,48.97
2023-04-26T01:37:58.499Z,41.90
2023-04-26T01:40:27.865Z,35.53
2023-04-26T01:42:55.743Z,38.33
2023-04-26T01:45:24.278Z,51.15
2023-04-26T01:47:52.126Z,58.97
2023-04-26T01:50:20.444Z,52.35
2023-04-26T01:52:48.949Z,42.72
2023-04-26T01:55:17.000Z,55.22
2023-04-26T01:57:46.280Z,72.07
2023-04-26T02:00:14.752Z,55.65
2023-04-26T02:02:42.755Z,32.50
2023-04-26T02:05:13.267Z,37.13
2023-04-26T02:07:41.233Z,38.83
2023-04-26T02:10:10.469Z,44.72
2023-04-26T02:12:38.279Z,73.03
2023-04-26T02:15:09.568Z,50.63
2023-04-26T02:17:39.275Z,56.10
2023-04-26T02:20:10.514Z,68.90
2023-04-26T02:22:38.415Z,66.55
2023-04-26T02:25:07.221Z,52.72
2023-04-26T02:27:37.250Z,50.38
2023-04-26T02:30:14.691Z,44.25
2023-04-26T02:32:42.742Z,66.75
2023-04-26T02:35:10.784Z,59.00
2023-04-26T02:37:39.426Z,45.63
2023-04-26T02:40:10.967Z,46.03
2023-04-26T02:42:38.885Z,49.58
2023-04-26T02:45:07.940Z,56.50
2023-04-26T02:47:38.735Z,59.08
2023-04-26T02:50:07.920Z,55.17
2023-04-26T02:52:36.073Z,54.30
2023-04-26T02:55:04.911Z,70.35
2023-04-26T02:57:32.969Z,63.53
2023-04-26T03:00:01.283Z,58.78
2023-04-26T03:02:29.362Z,74.35
2023-04-26T03:04:58.943Z,68.95
2023-04-26T03:07:26.900Z,62.70
2023-04-26T03:09:54.825Z,67.68
2023-04-26T03:12:22.626Z,81.22
2023-04-26T03:14:50.430Z,67.38
2023-04-26T03:17:18.230Z,64.60
2023-04-26T03:19:46.035Z,62.92
2023-04-26T03:22:16.315Z,61.53
2023-04-26T03:24:44.239Z,72.10
2023-04-26T03:27:12.089Z,62.67
2023-04-26T03:29:41.251Z,65.65
2023-04-26T03:32:10.013Z,68.28
2023-04-26T03:34:37.953Z,60.15
2023-04-26T03:37:05.830Z,67.25
2023-04-26T03:39:35.081Z,63.50
2023-04-26T03:42:05.615Z,64.95
2023-04-26T03:44:33.417Z,57.78
2023-04-26T03:47:01.510Z,58.58
2023-04-26T03:49:29.316Z,60.63
2023-04-26T03:51:57.264Z,60.63
2023-04-26T03:54:25.180Z,59.05
2023-04-26T03:56:54.626Z,50.30
2023-04-26T03:59:22.424Z,50.25
2023-04-26T04:01:50.254Z,54.10
2023-04-26T04:04:18.456Z,48.22
2023-04-26T04:06:46.367Z,52.58
2023-04-26T04:09:14.260Z,54.17
2023-04-26T04:11:42.035Z,52.58
2023-04-26T04:14:11.252Z,52.80
2023-04-26T04:16:39.039Z,47.85
2023-04-26T04:19:06.937Z,51.83
2023-04-26T04:21:35.100Z,49.22
2023-04-26T04:24:02.898Z,58.10
2023-04-26T04:26:31.082Z,50.47
2023-04-26T04:29:00.716Z,54.28
2023-04-26T04:31:30.125Z,46.00
2023-04-26T04:33:59.115Z,47.28
2023-04-26T04:36:27.203Z,48.20
2023-04-26T04:38:55.123Z,36.67
2023-04-26T04:41:23.646Z,43.65
2023-04-26T04:43:51.618Z,37.88
2023-04-26T04:46:19.460Z,37.03
2023-04-26T04:48:48.693Z,45.08
2023-04-26T04:51:16.591Z,44.33
2023-04-26T04:53:44.481Z,28.48
2023-04-26T04:56:12.495Z,28.13
2023-04-26T04:58:40.271Z,25.63
2023-04-26T05:01:08.100Z,20.08
2023-04-26T05:03:36.703Z,14.45
2023-04-26T05:06:06.952Z,16.38
2023-04-26T05:08:34.774Z,13.80
2023-04-26T05:11:02.982Z,13.65
2023-04-26T05:13:31.099Z,8.63
2023-04-26T05:15:58.910Z,9.15
2023-04-26T05:18:26.841Z,7.57
2023-04-26T05:20:54.624Z,10.18
2023-04-26T05:23:23.757Z,6.28
2023-04-26T05:25:51.912Z,5.47
2023-04-26T05:28:19.761Z,5.32
2023-04-26T05:30:47.839Z,6.13
2023-04-26T05:33:15.638Z,3.97
2023-04-26T05:35:43.521Z,4.50
2023-04-26T05:38:11.259Z,3.67
2023-04-26T05:40:40.515Z,8.15
2023-04-26T05:43:08.521Z,9.20
2023-04-26T05:45:36.457Z,8.20
2023-04-26T05:48:04.620Z,7.38
2023-04-26T05:50:32.767Z,2.95
2023-04-26T05:53:00.618Z,5.72
2023-04-26T05:55:28.445Z,5.53
2023-04-26T05:57:58.500Z,6.97
2023-04-26T06:00:26.720Z,3.55
2023-04-26T06:02:54.514Z,17.02
2023-04-26T06:05:23.173Z,4.65
2023-04-26T06:07:51.868Z,5.50
2023-04-26T06:10:19.750Z,6.30
2023-04-26T06:12:48.216Z,7.82
2023-04-26T06:15:17.646Z,5.10
2023-04-26T06:17:45.684Z,3.28
2023-04-26T06:20:13.639Z,5.50
2023-04-26T06:22:41.383Z,2.90
2023-04-26T06:25:09.538Z,9.15
2023-04-26T06:27:39.141Z,3.80
2023-04-26T06:30:08.726Z,10.45
2023-04-26T06:32:39.937Z,3.20
2023-04-26T06:35:08.412Z,9.55
2023-04-26T06:37:36.280Z,2.78
2023-04-26T06:40:04.342Z,2.78
2023-04-26T06:42:32.187Z,3.42
2023-04-26T06:45:00.133Z,4.05
2023-04-26T06:47:28.072Z,2.15
2023-04-26T06:49:57.668Z,4.40
2023-04-26T06:52:26.258Z,3.05
2023-04-26T06:54:57.584Z,8.65
2023-04-26T06:57:26.002Z,2.08
2023-04-26T06:59:53.866Z,2.95
2023-04-26T07:02:23.535Z,2.05
2023-04-26T07:04:52.256Z,5.30
2023-04-26T07:07:21.993Z,12.73
2023-04-26T07:09:49.790Z,3.50
2023-04-26T07:12:17.563Z,1.50
2023-04-26T07:14:45.894Z,1.70
2023-04-26T07:17:13.762Z,10.90
2023-04-26T07:19:41.692Z,1.42
2023-04-26T07:22:09.449Z,1.10
2023-04-26T07:24:38.685Z,1.02
2023-04-26T07:27:06.822Z,1.10
2023-04-26T07:29:34.734Z,1.00
2023-04-26T07:32:02.567Z,1.42
2023-04-26T07:34:30.510Z,3.30
2023-04-26T07:36:58.297Z,1.73
2023-04-26T07:39:26.209Z,2.78
2023-04-26T07:41:55.578Z,1.35
2023-04-26T07:44:23.382Z,2.22
2023-04-26T07:46:51.265Z,1.13
2023-04-26T07:49:19.271Z,1.20
2023-04-26T07:51:47.272Z,3.72
2023-04-26T07:54:15.345Z,2.22
2023-04-26T07:56:43.132Z,2.70
2023-04-26T07:59:12.416Z,1.15
2023-04-26T08:01:40.293Z,1.17
2023-04-26T08:04:08.252Z,1.48
2023-04-26T08:06:36.261Z,2.75
2023-04-26T08:09:05.161Z,1.83
2023-04-26T08:11:33.056Z,1.13
2023-04-26T08:14:00.868Z,5.32
2023-04-26T08:16:30.067Z,1.05
2023-04-26T08:19:02.746Z,1.58
2023-04-26T08:21:31.020Z,1.63
2023-04-26T08:23:58.764Z,5.28
2023-04-26T08:26:26.665Z,1.00
2023-04-26T08:28:54.551Z,1.30
2023-04-26T08:31:23.023Z,1.10
2023-04-26T08:33:52.556Z,0.90
2023-04-26T08:36:20.657Z,1.50
2023-04-26T08:38:48.380Z,2.35
2023-04-26T08:41:23.499Z,2.55
2023-04-26T08:43:51.676Z,1.38
2023-04-26T08:46:21.748Z,1.63
2023-04-26T08:48:59.060Z,1.42
2023-04-26T08:51:29.000Z,4.10
2023-04-26T08:53:59.149Z,4.10
2023-04-26T08:56:27.619Z,8.02
2023-04-26T08:58:55.611Z,2.55
2023-04-26T09:01:25.226Z,4.00
2023-04-26T09:03:53.409Z,4.10
2023-04-26T09:06:24.187Z,6.15
2023-04-26T09:08:53.237Z,1.90
2023-04-26T09:11:21.045Z,1.95
2023-04-26T09:13:48.927Z,1.05
2023-04-26T09:16:16.846Z,1.00
2023-04-26T09:18:52.787Z,1.08
2023-04-26T09:21:22.362Z,1.00
2023-04-26T09:24:00.249Z,0.90
2023-04-26T09:26:28.156Z,1.52
2023-04-26T09:29:14.963Z,1.00
2023-04-26T09:31:47.795Z,3.50
2023-04-26T09:34:17.318Z,4.57
2023-04-26T09:36:55.643Z,1.10
2023-04-26T09:39:34.046Z,0.90
2023-04-26T09:42:02.965Z,1.77
2023-04-26T09:44:32.184Z,2.95
2023-04-26T09:47:01.772Z,1.00
2023-04-26T09:49:31.233Z,1.60
2023-04-26T09:52:05.357Z,1.17
2023-04-26T09:54:41.031Z,9.15
2023-04-26T09:57:08.828Z,1.40
2023-04-26T09:59:44.006Z,1.00
2023-04-26T10:02:16.195Z,1.00
2023-04-26T10:04:49.020Z,1.15
2023-04-26T10:07:19.494Z,3.00
2023-04-26T10:09:48.510Z,1.20
2023-04-26T10:12:17.731Z,3.10
2023-04-26T10:14:46.574Z,1.30
2023-04-26T10:17:15.196Z,1.75
2023-04-26T10:19:45.035Z,1.65
2023-04-26T10:22:18.514Z,1.00
2023-04-26T10:24:49.149Z,2.47
2023-04-26T10:27:17.444Z,0.90
2023-04-26T10:30:12.038Z,0.80
2023-04-26T10:33:18.486Z,0.75
2023-04-26T10:36:17.053Z,0.73
2023-04-26T10:39:20.338Z,75.78
2023-04-26T10:41:49.654Z,0.70
2023-04-26T10:44:40.287Z,5.78
2023-04-26T10:47:21.449Z,0.95
2023-04-26T10:49:49.385Z,0.63
2023-04-26T10:52:20.224Z,0.80
2023-04-26T10:54:53.422Z,4.40
2023-04-26T10:57:23.981Z,2.15
2023-04-26T11:00:32.950Z,8.73
2023-04-26T11:03:08.844Z,0.93
2023-04-26T11:05:39.463Z,0.80
2023-04-26T11:08:09.427Z,0.70
2023-04-26T11:10:41.040Z,4.68
2023-04-26T11:13:10.275Z,1.98
2023-04-26T11:15:38.078Z,0.75
2023-04-26T11:18:06.708Z,0.70
2023-04-26T11:20:35.442Z,7.68
2023-04-26T11:23:03.364Z,1.77
2023-04-26T11:25:31.733Z,0.95
2023-04-26T11:28:03.622Z,0.60
2023-04-26T11:30:33.991Z,1.65
2023-04-26T11:33:02.355Z,1.08
2023-04-26T11:35:30.951Z,6.43
2023-04-26T11:38:01.971Z,3.80
2023-04-26T11:40:31.093Z,2.63
2023-04-26T11:43:03.173Z,1.20
2023-04-26T11:45:33.271Z,1.33
2023-04-26T11:48:04.408Z,2.75
2023-04-26T11:50:34.352Z,8.18
2023-04-26T11:53:04.754Z,4.95
2023-04-26T11:55:34.175Z,1.15
2023-04-26T11:58:03.574Z,1.90
2023-04-26T12:00:32.947Z,1.65
2023-04-26T12:03:07.315Z,0.75
2023-04-26T12:05:35.479Z,0.80
2023-04-26T12:08:03.401Z,0.88
2023-04-26T12:10:33.696Z,0.50
2023-04-26T12:13:01.839Z,0.68
2023-04-26T12:15:32.890Z,5.38
2023-04-26T12:18:02.303Z,2.65
2023-04-26T12:20:31.505Z,2.60
2023-04-26T12:23:01.310Z,0.70
2023-04-26T12:25:29.687Z,3.70
2023-04-26T12:27:58.363Z,2.45
2023-04-26T12:30:28.284Z,12.50
2023-04-26T12:33:05.737Z,3.08
2023-04-26T12:35:43.343Z,0.70
2023-04-26T12:38:12.452Z,3.08
2023-04-26T12:40:41.741Z,1.90
2023-04-26T12:43:09.713Z,9.85
2023-04-26T12:45:37.676Z,4.07
2023-04-26T12:48:07.084Z,2.88
2023-04-26T12:50:35.085Z,0.80
2023-04-26T12:53:02.905Z,0.70
2023-04-26T12:55:32.618Z,2.63
2023-04-26T12:58:01.104Z,6.00
2023-04-26T13:00:29.085Z,2.92
2023-04-26T13:02:57.074Z,1.02
2023-04-26T13:05:26.400Z,3.28
2023-04-26T13:07:54.306Z,14.18
2023-04-26T13:10:22.209Z,1.15
2023-04-26T13:12:50.179Z,4.43
2023-04-26T13:15:18.134Z,3.22
2023-04-26T13:17:46.184Z,2.95
2023-04-26T13:20:14.553Z,1.10
2023-04-26T13:22:43.780Z,0.88
2023-04-26T13:25:13.204Z,9.55
2023-04-26T13:27:41.129Z,1.98
2023-04-26T13:30:10.692Z,0.98
2023-04-26T13:32:38.453Z,3.35
2023-04-26T13:35:07.457Z,2.85
2023-04-26T13:37:35.542Z,0.80
2023-04-26T13:40:05.655Z,3.88
2023-04-26T13:42:33.591Z,126.68
2023-04-26T13:45:06.188Z,7.22
2023-04-26T13:47:34.570Z,2.75
2023-04-26T13:50:02.562Z,4.03
2023-04-26T13:52:30.534Z,4.03
2023-04-26T13:54:58.309Z,0.90
2023-04-26T13:57:27.532Z,1.50
2023-04-26T13:59:55.357Z,1.95
2023-04-26T14:02:24.510Z,1.05
2023-04-26T14:04:52.923Z,2.75
2023-04-26T14:07:21.259Z,4.60
2023-04-26T14:09:51.588Z,1.33
2023-04-26T14:12:19.913Z,1.42
2023-04-26T14:14:49.145Z,1.20
2023-04-26T14:17:16.969Z,1.10
2023-04-26T14:19:44.763Z,3.80
2023-04-26T14:22:13.136Z,2.22
2023-04-26T14:24:41.169Z,4.72
2023-04-26T14:27:08.945Z,1.00
2023-04-26T14:29:37.399Z,0.90
2023-04-26T14:32:08.053Z,3.60
2023-04-26T14:34:39.366Z,4.30
2023-04-26T14:37:07.281Z,2.53
2023-04-26T14:39:35.250Z,0.93
2023-04-26T14:42:03.472Z,1.48
2023-04-26T14:44:31.332Z,5.57
2023-04-26T14:46:59.115Z,3.65
2023-04-26T14:49:28.261Z,6.40
2023-04-26T14:51:56.145Z,1.83
2023-04-26T14:54:23.975Z,2.45
2023-04-26T14:56:51.954Z,1.05
2023-04-26T14:59:19.820Z,6.90
2023-04-26T15:01:47.658Z,1.63
2023-04-26T15:04:15.784Z,1.52
2023-04-26T15:06:45.091Z,12.68
2023-04-26T15:09:13.187Z,2.78
2023-04-26T15:11:41.253Z,1.40
2023-04-26T15:14:09.092Z,4.47
2023-04-26T15:16:36.972Z,2.85
2023-04-26T15:19:04.796Z,0.80
2023-04-26T15:21:34.340Z,1.55
2023-04-26T15:24:03.542Z,1.85
2023-04-26T15:26:31.333Z,1.00
2023-04-26T15:28:59.094Z,1.17
2023-04-26T15:31:27.117Z,1.98
2023-04-26T15:33:56.513Z,2.75
2023-04-26T15:36:24.695Z,9.65
2023-04-26T15:38:52.778Z,1.65
2023-04-26T15:41:21.996Z,2.30
2023-04-26T15:43:54.848Z,1.25
2023-04-26T15:46:23.108Z,5.38
2023-04-26T15:48:51.503Z,11.52
2023-04-26T15:51:19.407Z,8.77
2023-04-26T15:53:47.201Z,1.58
2023-04-26T15:56:15.745Z,1.27
2023-04-26T15:58:45.573Z,3.35
2023-04-26T16:01:13.858Z,3.00
2023-04-26T16:03:44.604Z,1.20
2023-04-26T16:06:14.507Z,1.80
2023-04-26T16:08:42.460Z,1.65
2023-04-26T16:11:10.603Z,2.00
2023-04-26T16:13:38.417Z,1.35
2023-04-26T16:16:10.669Z,8.40
2023-04-26T16:18:40.348Z,1.40
2023-04-26T16:21:09.727Z,3.97
2023-04-26T16:23:38.055Z,1.45
2023-04-26T16:28:51.996Z,1.60
2023-04-26T16:31:22.317Z,1.40
2023-04-26T16:33:50.086Z,2.65
2023-04-26T16:36:18.388Z,1.67
2023-04-26T16:38:46.206Z,1.67
2023-04-26T16:41:14.170Z,1.70
2023-04-26T16:43:41.918Z,4.57
2023-04-26T16:46:10.246Z,2.10
2023-04-26T16:48:40.149Z,1.30
2023-04-26T16:51:08.249Z,1.50
2023-04-26T16:53:37.706Z,4.07
2023-04-26T16:56:06.317Z,1.77
2023-04-26T16:58:34.320Z,4.30
2023-04-26T17:01:02.165Z,4.80
2023-04-26T17:03:30.216Z,1.73
2023-04-26T17:06:00.142Z,3.88
2023-04-26T17:08:28.222Z,2.22
2023-04-26T17:10:56.385Z,3.50
2023-04-26T17:13:29.130Z,1.20
2023-04-26T17:15:57.483Z,3.63
2023-04-26T17:18:25.301Z,2.80
2023-04-26T17:20:56.360Z,1.30
2023-04-26T17:23:26.351Z,1.65
2023-04-26T17:25:55.458Z,1.33
2023-04-26T17:28:23.879Z,1.40
2023-04-26T17:30:52.050Z,1.38
2023-04-26T17:33:20.215Z,2.25
2023-04-26T17:35:48.234Z,1.50
2023-04-26T17:38:16.007Z,1.48
2023-04-26T17:40:45.260Z,1.60
2023-04-26T17:43:13.004Z,1.85
2023-04-26T17:45:40.767Z,1.67
2023-04-26T17:48:12.880Z,3.03
2023-04-26T17:50:41.154Z,1.60
2023-04-26T17:53:09.175Z,1.42
2023-04-26T17:55:37.462Z,2.75
2023-04-26T17:58:06.763Z,1.50
2023-04-26T18:00:34.702Z,2.35
2023-04-26T18:03:05.420Z,2.63
2023-04-26T18:05:33.360Z,2.22
2023-04-26T18:08:01.228Z,1.50
2023-04-26T18:10:29.056Z,7.15
2023-04-26T18:12:56.955Z,1.50
2023-04-26T18:15:26.392Z,1.55
2023-04-26T18:17:54.918Z,2.30
2023-04-26T18:20:22.846Z,1.52
2023-04-26T18:22:50.691Z,1.50
2023-04-26T18:25:18.644Z,3.00
2023-04-26T18:27:47.808Z,1.67
2023-04-26T18:30:15.828Z,2.65
2023-04-26T18:32:45.015Z,2.33
2023-04-26T18:35:12.945Z,2.97
2023-04-26T18:37:41.977Z,4.22
2023-04-26T18:40:10.912Z,1.40
2023-04-26T18:42:38.967Z,3.05
2023-04-26T18:45:07.895Z,1.65
2023-04-26T18:47:35.821Z,1.70
2023-04-26T18:50:05.604Z,1.52
2023-04-26T18:52:33.665Z,1.40
2023-04-26T18:55:01.494Z,2.28
2023-04-26T18:57:29.482Z,1.50
2023-04-26T18:59:59.023Z,1.73
2023-04-26T19:02:26.926Z,1.67
2023-04-26T19:04:54.872Z,4.65
2023-04-26T19:07:24.178Z,1.63
2023-04-26T19:09:54.552Z,1.80
2023-04-26T19:12:23.068Z,1.70
2023-04-26T19:14:50.869Z,2.00
2023-04-26T19:17:18.824Z,1.70
2023-04-26T19:19:46.815Z,4.03
2023-04-26T19:22:14.745Z,1.63
2023-04-26T19:24:44.045Z,5.78
2023-04-26T19:27:12.430Z,1.60
2023-04-26T19:29:40.252Z,4.65
2023-04-26T19:32:08.643Z,1.80
2023-04-26T19:34:38.799Z,1.80
2023-04-26T19:37:07.106Z,1.80
2023-04-26T19:39:35.333Z,1.85
2023-04-26T19:42:05.081Z,1.67
2023-04-26T19:44:32.967Z,1.63
2023-04-26T19:47:00.974Z,4.13
2023-04-26T19:49:29.220Z,1.80
2023-04-26T19:51:57.182Z,1.88
2023-04-26T19:54:25.246Z,1.80
2023-04-26T19:56:53.107Z,4.03
2023-04-26T19:59:22.255Z,2.00
2023-04-26T20:01:51.021Z,1.70
2023-04-26T20:04:21.433Z,1.95
2023-04-26T20:06:49.491Z,2.00
2023-04-26T20:09:17.440Z,2.10
2023-04-26T20:11:45.241Z,1.80
2023-04-26T20:14:12.992Z,1.90
2023-04-26T20:16:42.166Z,1.92
2023-04-26T20:19:10.740Z,2.78
2023-04-26T20:21:38.730Z,2.17
2023-04-26T20:24:07.265Z,1.80
2023-04-26T20:26:35.192Z,2.25
2023-04-26T20:29:03.045Z,3.53
2023-04-26T20:31:31.063Z,2.05
2023-04-26T20:34:00.805Z,1.83
2023-04-26T20:36:28.801Z,1.92
2023-04-26T20:38:56.684Z,1.80
2023-04-26T20:41:24.540Z,1.80
2023-04-26T20:43:53.017Z,2.05
2023-04-26T20:46:20.971Z,2.17
2023-04-26T20:48:49.096Z,1.80
2023-04-26T20:51:18.266Z,2.03
2023-04-26T20:53:46.246Z,1.90
2023-04-26T20:56:14.051Z,2.03
2023-04-26T20:58:41.926Z,1.80
2023-04-26T21:01:11.146Z,1.90
2023-04-26T21:03:39.509Z,7.45
2023-04-26T21:06:07.423Z,1.90
2023-04-26T21:08:37.072Z,3.30
2023-04-26T21:11:05.151Z,2.00
2023-04-26T21:13:32.889Z,2.20
2023-04-26T21:16:02.508Z,3.35
2023-04-26T21:18:30.685Z,1.92
2023-04-26T21:20:58.461Z,1.95
2023-04-26T21:23:26.364Z,2.53
2023-04-26T21:25:55.595Z,6.82
2023-04-26T21:28:23.329Z,2.10
2023-04-26T21:30:51.252Z,2.25
2023-04-26T21:33:19.248Z,2.00
2023-04-26T21:35:47.027Z,2.15
2023-04-26T21:38:14.813Z,2.50
2023-04-26T21:40:42.672Z,1.83
2023-04-26T21:43:11.810Z,2.10
2023-04-26T21:45:39.715Z,2.20
2023-04-26T21:48:07.590Z,2.35
2023-04-26T21:50:35.466Z,2.33
2023-04-26T21:53:03.297Z,4.60
2023-04-26T21:55:31.025Z,2.30
2023-04-26T21:57:58.909Z,2.15
2023-04-26T22:00:28.338Z,3.33
2023-04-26T22:02:56.270Z,2.17
2023-04-26T22:05:25.878Z,2.20
2023-04-26T22:07:54.302Z,2.05
2023-04-26T22:10:22.179Z,2.15
2023-04-26T22:12:49.913Z,2.40
2023-04-26T22:15:17.745Z,2.17
2023-04-26T22:17:46.902Z,2.33
2023-04-26T22:20:14.668Z,1.80
2023-04-26T22:22:42.461Z,2.00
2023-04-26T22:25:11.180Z,2.13
2023-04-26T22:27:38.959Z,2.00
2023-04-26T22:30:22.878Z,2.08
2023-04-26T22:32:55.458Z,2.15
2023-04-26T22:35:24.607Z,2.15
2023-04-26T22:37:52.536Z,2.33
2023-04-26T22:40:20.538Z,2.05
2023-04-26T22:42:48.548Z,2.20
2023-04-26T22:45:16.651Z,4.28
2023-04-26T22:47:44.598Z,2.47
2023-04-26T22:50:13.992Z,2.30
2023-04-26T22:52:41.898Z,2.15
2023-04-26T22:55:10.595Z,1.95
2023-04-26T22:57:38.562Z,2.33
2023-04-26T23:00:09.561Z,2.20
2023-04-26T23:02:38.139Z,2.40
2023-04-26T23:05:09.695Z,6.82
2023-04-26T23:07:39.210Z,4.03
2023-04-26T23:10:08.302Z,1.90
2023-04-26T23:12:37.068Z,2.10
2023-04-26T23:15:06.066Z,2.08
2023-04-26T23:17:34.800Z,2.17
2023-04-26T23:20:03.020Z,2.00
2023-04-26T23:22:31.045Z,2.28
2023-04-26T23:25:00.583Z,2.10
2023-04-26T23:27:28.412Z,4.25
2023-04-26T23:29:56.846Z,2.15
2023-04-26T23:32:24.941Z,2.03
2023-04-26T23:34:53.446Z,2.08
2023-04-26T23:37:21.496Z,2.22
2023-04-26T23:39:49.301Z,2.40
2023-04-26T23:42:18.446Z,2.75
2023-04-26T23:44:46.335Z,1.90
2023-04-26T23:47:14.292Z,2.30
2023-04-26T23:49:42.109Z,2.97
2023-04-26T23:52:09.951Z,2.10
2023-04-26T23:54:37.700Z,1.98
2023-04-26T23:57:05.523Z,2.33
2023-04-26T23:59:34.742Z,2.35
